CheckWX is a tool to help pilots better visualize weather data.  It is not intended as a substitute for an official pre-flight weather briefing.

15:55:03 UTC

KEND TAF
Vance AFB Airport
Enid, Oklahoma, USA
TAF KEND 191000Z 1910/2016 VRB06KT 9999 SKC 510205 QNH2989INS BECMG 1916/1917 15012G18KT 9999 SKC QNH2985INS BECMG 2002/2003 16009KT 9999 FEW200 WS020/19040KT QNH2981INS BECMG 2011/2012 17010G15KT 9999 BKN015 OVC150 510205 QNH2978INS TX20/1921Z TN04/1911Z

Nov-19@
10:00 UTC

Nov-19 @ 10:00 UTC

Nov-19@
16:00 UTC

Nov-19 @ 16:00 UTC

TAF KEND 191000Z 1910/2016 VRB06KT 9999 SKC 510205 QNH2989INS
Wind
  • Variable at 6 KTS
Cloud Levels
  • Clear skies
Turbulence
< Light turbulence expected at 2,000' AGL extending to 7,000' AGL

Nov-19@
16:00 UTC

Nov-19 @ 16:00 UTC

Nov-20@
02:00 UTC

Nov-20 @ 02:00 UTC

BECMG 1916/1917 15012G18KT 9999 SKC QNH2985INS

Becoming

Becoming Conditions expected by Tue, Nov 19, 2019 @ 17:00 UTC

Wind
  • 150° at 12 KTS
  • {Gusting to 18 KTS
Cloud Levels
  • Clear skies

Nov-20@
02:00 UTC

Nov-20 @ 02:00 UTC

Nov-20@
11:00 UTC

Nov-20 @ 11:00 UTC

BECMG 2002/2003 16009KT 9999 FEW200 WS020/19040KT QNH2981INS

Becoming

Becoming Conditions expected by Wed, Nov 20, 2019 @ 03:00 UTC

Wind
  • 160° at 9 KTS
Cloud Levels
  • Few at 20,000' AGL

Nov-20@
11:00 UTC

Nov-20 @ 11:00 UTC

Nov-20@
16:00 UTC

Nov-20 @ 16:00 UTC

BECMG 2011/2012 17010G15KT 9999 BKN015 OVC150 510205 QNH2978INS TX20/1921Z TN04/1911Z

Becoming

Becoming Conditions expected by Wed, Nov 20, 2019 @ 12:00 UTC

Wind
  • 170° at 10 KTS
  • {Gusting to 15 KTS
Cloud Levels
  • Broken at 1,500' AGL
  • Overcast at 15,000' AGL
Turbulence
< Light turbulence expected at 2,000' AGL extending to 7,000' AGL